Time;durP1;ratioP1;P1;durP2;ratioP2;P2;SDS_P1;SDS_P2;PMS_P1;PMS_P2;Temp;Humidity;BMP_temperature;BMP_pressure;BME280_temperature;BME280_humidity;BME280_pressure;Samples;Min_cycle;Max_cycle;Signal;HPM_P1;HPM_P2
2021/10/30 00:02:11;;;;;;;3.63;1.73;;;;;;;25.52;34.17;96076.06;5029306;28;20029;-64
2021/10/30 00:04:36;;;;;;;1.95;1.70;;;;;;;25.51;34.10;96077.00;5027779;28;20069;-65
2021/10/30 00:07:02;;;;;;;2.75;2.00;;;;;;;25.51;34.30;96084.06;5029316;28;20033;-63
2021/10/30 00:09:27;;;;;;;2.38;1.90;;;;;;;25.52;33.98;96085.72;5026893;28;20033;-64
2021/10/30 00:11:53;;;;;;;4.05;1.60;;;;;;;25.51;34.18;96078.81;5031023;28;20040;-64
2021/10/30 00:14:18;;;;;;;5.30;1.90;;;;;;;25.50;34.09;96077.97;5029289;28;20523;-62
2021/10/30 00:16:44;;;;;;;1.92;1.67;;;;;;;25.51;34.13;96073.56;5006350;28;20116;-63
2021/10/30 00:19:09;;;;;;;2.35;1.90;;;;;;;25.50;34.29;96070.09;5009647;28;20029;-64
2021/10/30 00:21:35;;;;;;;1.90;1.50;;;;;;;25.51;34.19;96074.38;5009037;28;20131;-63
2021/10/30 00:24:00;;;;;;;2.60;1.90;;;;;;;25.50;34.03;96070.09;5028345;28;20044;-65
2021/10/30 00:26:26;;;;;;;3.25;1.92;;;;;;;25.50;34.18;96072.72;5013424;28;20052;-62
2021/10/30 00:28:52;;;;;;;2.47;2.05;;;;;;;25.50;34.13;96067.47;5024307;28;20043;-64
2021/10/30 00:31:17;;;;;;;3.28;1.90;;;;;;;25.50;34.27;96067.47;5018731;28;20036;-64
2021/10/30 00:33:42;;;;;;;2.30;1.90;;;;;;;25.50;34.17;96064.00;5035276;28;20478;-63
2021/10/30 00:36:08;;;;;;;3.13;1.55;;;;;;;25.50;34.10;96062.22;5034309;28;20036;-64
2021/10/30 00:38:34;;;;;;;3.47;1.70;;;;;;;25.50;34.16;96056.97;5034439;28;20439;-64
2021/10/30 00:41:03;;;;;;;3.67;1.67;;;;;;;25.49;34.07;96046.56;5032971;28;20055;-62
2021/10/30 00:43:29;;;;;;;1.75;1.60;;;;;;;25.49;34.13;96044.81;5030874;28;20037;-62
2021/10/30 00:45:54;;;;;;;3.05;1.60;;;;;;;25.50;34.25;96040.38;5000094;28;20763;-63
2021/10/30 00:48:20;;;;;;;2.47;1.73;;;;;;;25.49;33.98;96038.69;5016543;28;20025;-63
2021/10/30 00:50:45;;;;;;;4.70;1.60;;;;;;;25.48;33.88;96043.13;5013962;28;20032;-64
2021/10/30 00:53:11;;;;;;;2.17;1.60;;;;;;;25.48;34.05;96035.25;5027396;28;20657;-64
2021/10/30 00:55:36;;;;;;;2.65;1.73;;;;;;;25.49;34.19;96033.47;5012241;28;20040;-64
2021/10/30 00:58:02;;;;;;;2.55;1.70;;;;;;;25.48;33.95;96027.38;5011259;28;20033;-64
2021/10/30 01:00:27;;;;;;;1.90;1.60;;;;;;;25.48;34.03;96027.38;5028287;28;20150;-64
2021/10/30 01:02:53;;;;;;;3.80;1.80;;;;;;;25.47;34.13;96025.69;5017083;28;20033;-64
2021/10/30 01:05:18;;;;;;;2.28;1.67;;;;;;;25.47;34.04;96033.56;5026788;28;20032;-62
2021/10/30 01:07:44;;;;;;;1.95;1.70;;;;;;;25.47;34.17;96030.94;5032732;28;20036;-63
2021/10/30 01:10:09;;;;;;;2.47;1.60;;;;;;;25.47;33.94;96036.16;5029317;28;20025;-64
2021/10/30 01:12:34;;;;;;;2.95;2.00;;;;;;;25.47;33.93;96030.94;5031287;28;20025;-64
2021/10/30 01:15:00;;;;;;;1.50;1.40;;;;;;;25.47;34.01;96030.94;5030126;28;20024;-64
2021/10/30 01:17:25;;;;;;;1.70;1.23;;;;;;;25.47;34.05;96025.69;5015182;28;20040;-63
2021/10/30 01:19:54;;;;;;;1.92;1.70;;;;;;;25.46;33.81;96018.75;5033289;28;20086;-63
2021/10/30 01:22:21;;;;;;;2.45;1.73;;;;;;;25.45;33.95;96012.66;5031474;28;20659;-64
2021/10/30 01:24:47;;;;;;;2.08;1.48;;;;;;;25.46;33.96;96013.50;5031665;28;20063;-62
2021/10/30 01:27:14;;;;;;;2.58;1.67;;;;;;;25.44;33.99;96018.03;5009518;28;20040;-64
2021/10/30 01:29:40;;;;;;;2.45;1.60;;;;;;;25.46;34.15;96021.38;5030704;28;20056;-64
2021/10/30 01:32:06;;;;;;;1.60;1.50;;;;;;;25.46;34.06;96008.25;5031885;28;20028;-64
2021/10/30 01:34:31;;;;;;;2.40;1.60;;;;;;;25.44;33.95;96002.28;5029345;28;20590;-64
2021/10/30 01:36:56;;;;;;;1.83;1.67;;;;;;;25.45;33.89;96001.34;5031066;28;20037;-63
2021/10/30 01:39:23;;;;;;;1.95;1.70;;;;;;;25.45;34.04;95998.72;5012816;28;20017;-63
2021/10/30 01:41:49;;;;;;;2.03;1.80;;;;;;;25.44;34.11;95994.41;5031304;28;20093;-63
2021/10/30 01:44:14;;;;;;;3.05;1.60;;;;;;;25.43;33.92;95990.94;5028862;28;20038;-64
2021/10/30 01:46:39;;;;;;;2.60;1.90;;;;;;;25.44;34.12;95991.81;5032134;28;20045;-64
2021/10/30 01:49:05;;;;;;;1.60;1.50;;;;;;;25.44;33.97;95983.94;5031890;28;20032;-63
2021/10/30 01:51:30;;;;;;;1.92;1.75;;;;;;;25.44;34.11;95981.31;5024764;28;20029;-64
2021/10/30 01:53:57;;;;;;;2.35;1.70;;;;;;;25.44;33.89;95983.94;5030028;28;20025;-63
2021/10/30 01:56:23;;;;;;;3.10;1.30;;;;;;;25.43;34.09;95983.06;5027530;28;20032;-63
2021/10/30 01:58:48;;;;;;;7.13;2.92;;;;;;;25.42;33.89;95981.41;4998179;28;20029;-63
2021/10/30 02:01:14;;;;;;;2.88;2.20;;;;;;;25.43;33.99;95984.84;5027494;28;20928;-62
2021/10/30 02:03:39;;;;;;;4.25;1.80;;;;;;;25.43;33.97;95979.59;5024855;28;20194;-63
2021/10/30 02:06:05;;;;;;;2.33;1.80;;;;;;;25.40;34.00;95970.16;5001261;28;20033;-64
2021/10/30 02:08:30;;;;;;;2.67;1.88;;;;;;;25.42;34.00;95975.31;4994628;28;20446;-64
2021/10/30 02:10:56;;;;;;;2.33;1.65;;;;;;;25.42;34.01;95972.69;5028708;28;20033;-65
2021/10/30 02:13:22;;;;;;;5.25;1.73;;;;;;;25.42;34.03;95967.44;5010833;28;20901;-63
2021/10/30 02:15:47;;;;;;;2.25;1.75;;;;;;;25.41;33.93;95969.25;5030237;28;20292;-63
2021/10/30 02:18:13;;;;;;;2.83;1.70;;;;;;;25.41;34.05;95963.13;5012796;28;20031;-63
2021/10/30 02:20:39;;;;;;;3.28;1.67;;;;;;;25.41;34.04;95964.00;5025914;28;20029;-63
2021/10/30 02:23:04;;;;;;;2.60;1.83;;;;;;;25.41;33.99;95960.50;5010516;28;20557;-63
2021/10/30 02:25:29;;;;;;;4.00;1.85;;;;;;;25.41;34.02;95965.75;5029128;28;20025;-63
2021/10/30 02:27:55;;;;;;;3.30;1.50;;;;;;;25.41;33.98;95957.88;5014449;28;20021;-63
2021/10/30 02:30:20;;;;;;;1.85;1.65;;;;;;;25.41;33.97;95960.50;5009008;28;20504;-63
2021/10/30 02:32:46;;;;;;;2.97;1.70;;;;;;;25.40;34.01;95956.22;5030651;28;20092;-63
2021/10/30 02:35:11;;;;;;;1.77;1.38;;;;;;;25.40;34.03;95950.97;5018726;28;20025;-63
2021/10/30 02:37:38;;;;;;;1.98;1.55;;;;;;;25.40;34.03;95948.34;5029893;28;20155;-62
2021/10/30 02:40:04;;;;;;;2.65;1.60;;;;;;;25.39;34.06;95942.25;5008615;28;20017;-62
2021/10/30 02:42:29;;;;;;;1.90;1.48;;;;;;;25.39;33.94;95937.00;5028420;28;20018;-62
2021/10/30 02:44:54;;;;;;;2.47;1.63;;;;;;;25.39;34.00;95937.00;5029427;28;20079;-62
2021/10/30 02:47:20;;;;;;;1.98;1.63;;;;;;;25.40;33.78;95935.22;5027596;28;20506;-63
2021/10/30 02:49:45;;;;;;;3.50;1.92;;;;;;;25.39;33.92;95925.66;5027548;28;20033;-63
2021/10/30 02:52:11;;;;;;;2.40;1.65;;;;;;;25.39;33.76;95920.41;5029900;28;20025;-63
2021/10/30 02:54:36;;;;;;;2.72;1.50;;;;;;;25.39;33.96;95917.78;5029915;28;20114;-63
2021/10/30 02:57:02;;;;;;;1.90;1.70;;;;;;;25.38;33.84;95906.47;5026641;28;20458;-63
2021/10/30 02:59:27;;;;;;;1.88;1.63;;;;;;;25.38;33.84;95910.88;5027391;28;20420;-63
2021/10/30 03:01:52;;;;;;;2.42;1.60;;;;;;;25.38;34.03;95911.72;5030612;28;20021;-63
2021/10/30 03:04:18;;;;;;;2.50;1.75;;;;;;;25.38;33.87;95900.38;5030736;28;20153;-63
2021/10/30 03:06:43;;;;;;;1.55;1.45;;;;;;;25.37;33.88;95890.84;5027888;28;20090;-63
2021/10/30 03:09:09;;;;;;;1.58;1.42;;;;;;;25.38;33.77;95892.50;5025147;28;20029;-63
2021/10/30 03:11:34;;;;;;;3.03;1.88;;;;;;;25.38;33.87;95895.13;5026758;28;20221;-65
2021/10/30 03:14:00;;;;;;;1.92;1.60;;;;;;;25.36;34.01;95897.84;5028467;28;20036;-63
2021/10/30 03:16:25;;;;;;;1.90;1.60;;;;;;;25.36;33.96;95897.03;5025240;28;21325;-64
2021/10/30 03:18:51;;;;;;;2.35;1.77;;;;;;;25.36;33.88;95892.59;5025897;28;20107;-62
2021/10/30 03:21:16;;;;;;;2.30;1.60;;;;;;;25.37;33.87;95893.47;5026332;28;20463;-63
2021/10/30 03:23:42;;;;;;;2.25;1.65;;;;;;;25.36;33.86;95886.53;5030513;28;20396;-62
2021/10/30 03:26:07;;;;;;;3.17;1.75;;;;;;;25.35;33.83;95887.50;5010741;28;20388;-63
2021/10/30 03:28:32;;;;;;;1.70;1.60;;;;;;;25.36;33.96;95881.28;5029283;28;20411;-63
2021/10/30 03:30:58;;;;;;;1.83;1.60;;;;;;;25.35;33.76;95879.63;5026817;28;20422;-62
2021/10/30 03:33:23;;;;;;;2.03;1.48;;;;;;;25.34;33.81;95864.81;5030953;28;20491;-63
2021/10/30 03:35:49;;;;;;;3.78;1.77;;;;;;;25.36;33.81;95865.56;5025405;28;20135;-63
2021/10/30 03:38:14;;;;;;;1.90;1.70;;;;;;;25.35;34.00;95864.72;5031462;28;20530;-62
2021/10/30 03:40:40;;;;;;;3.05;1.60;;;;;;;25.35;33.86;95864.72;5013931;28;20060;-63
2021/10/30 03:43:05;;;;;;;1.63;1.45;;;;;;;25.35;33.87;95858.66;5034758;28;20033;-62
2021/10/30 03:45:31;;;;;;;2.05;1.70;;;;;;;25.34;33.82;95852.53;5030077;28;20029;-64
2021/10/30 03:47:56;;;;;;;1.80;1.42;;;;;;;25.35;33.81;95853.41;5033076;28;20033;-64
2021/10/30 03:50:21;;;;;;;2.63;1.70;;;;;;;25.35;33.83;95853.41;5016592;28;20076;-63
2021/10/30 03:52:47;;;;;;;3.08;1.60;;;;;;;25.36;33.74;95855.91;5030608;28;20055;-64
2021/10/30 03:55:12;;;;;;;2.15;1.60;;;;;;;25.34;33.85;95851.69;5029331;28;20025;-64
2021/10/30 03:57:38;;;;;;;3.00;1.77;;;;;;;25.34;34.02;95852.53;5011809;28;20040;-64
2021/10/30 04:00:05;;;;;;;1.88;1.50;;;;;;;25.35;33.93;95850.78;5030148;28;20028;-64
2021/10/30 04:02:30;;;;;;;2.92;1.92;;;;;;;25.33;33.82;95834.28;5035688;28;20064;-63
2021/10/30 04:04:55;;;;;;;1.40;1.30;;;;;;;25.33;33.88;95831.66;5035039;28;20049;-64
2021/10/30 04:07:21;;;;;;;3.15;1.88;;;;;;;25.33;33.75;95834.28;5018981;28;20030;-63
2021/10/30 04:09:46;;;;;;;2.38;1.63;;;;;;;25.33;33.73;95831.66;5017901;28;20047;-64
2021/10/30 04:12:12;;;;;;;2.75;1.75;;;;;;;25.31;33.83;95816.03;5034862;28;20032;-64
2021/10/30 04:14:37;;;;;;;2.72;1.95;;;;;;;25.31;33.92;95816.88;5034010;28;20030;-64
2021/10/30 04:17:04;;;;;;;2.03;1.60;;;;;;;25.31;33.90;95810.78;5034695;28;20090;-63
2021/10/30 04:19:29;;;;;;;2.83;1.75;;;;;;;25.30;33.88;95809.97;5016300;28;20025;-63
2021/10/30 04:21:55;;;;;;;2.33;1.60;;;;;;;25.30;33.96;95809.97;5035386;28;20024;-62
2021/10/30 04:24:20;;;;;;;1.92;1.50;;;;;;;25.31;33.93;95816.03;5034609;28;20042;-63
2021/10/30 04:26:46;;;;;;;6.10;1.65;;;;;;;25.30;33.74;95794.22;5032489;28;20232;-62
2021/10/30 04:29:11;;;;;;;2.53;1.40;;;;;;;25.31;33.89;95795.03;5036204;28;20042;-64
2021/10/30 04:31:36;;;;;;;2.15;1.50;;;;;;;25.30;33.64;95786.38;5034078;28;20025;-63
2021/10/30 04:34:04;;;;;;;3.42;1.60;;;;;;;25.30;33.78;95788.97;5017212;28;20029;-63
2021/10/30 04:36:31;;;;;;;2.28;1.58;;;;;;;25.30;33.83;95786.38;5021221;28;20037;-63
2021/10/30 04:38:57;;;;;;;1.90;1.40;;;;;;;25.30;33.83;95788.97;5036570;28;20047;-63
2021/10/30 04:41:23;;;;;;;2.72;1.70;;;;;;;25.28;33.73;95784.78;5034915;28;20226;-62
2021/10/30 04:43:48;;;;;;;1.60;1.35;;;;;;;25.30;33.79;95788.97;5017949;28;20117;-62
2021/10/30 04:46:14;;;;;;;1.55;1.38;;;;;;;25.29;33.96;95789.91;5019819;28;20357;-62
2021/10/30 04:48:40;;;;;;;1.90;1.50;;;;;;;25.29;33.87;95792.53;5031031;28;20023;-64
2021/10/30 04:51:06;;;;;;;2.72;1.52;;;;;;;25.29;33.74;95792.53;5028436;28;20287;-62
2021/10/30 04:53:35;;;;;;;2.50;1.67;;;;;;;25.28;33.66;95785.59;5031434;28;20071;-63
2021/10/30 04:56:01;;;;;;;2.10;1.88;;;;;;;25.29;33.73;95783.84;5029232;28;20061;-63
2021/10/30 04:58:27;;;;;;;4.07;1.70;;;;;;;25.30;33.95;95782.88;5017306;28;20399;-64
2021/10/30 05:00:53;;;;;;;3.08;1.33;;;;;;;25.29;33.73;95782.03;5019779;28;20056;-63
2021/10/30 05:03:18;;;;;;;4.22;1.60;;;;;;;25.30;33.89;95777.66;5032776;28;23040;-62
2021/10/30 05:05:43;;;;;;;2.40;1.48;;;;;;;25.28;33.92;95775.13;5016271;28;20044;-64
2021/10/30 05:08:09;;;;;;;1.95;1.42;;;;;;;25.30;33.61;95775.03;5027184;28;20052;-63
2021/10/30 05:10:34;;;;;;;2.08;1.45;;;;;;;25.29;33.67;95778.59;5029482;28;20029;-64
2021/10/30 05:13:00;;;;;;;1.70;1.50;;;;;;;25.28;33.91;95769.88;5029145;28;20029;-63
2021/10/30 05:15:25;;;;;;;1.85;1.58;;;;;;;25.29;33.88;95761.06;5031290;28;20021;-63
2021/10/30 05:17:50;;;;;;;1.92;1.45;;;;;;;25.28;33.92;95769.88;5032311;28;20017;-63
2021/10/30 05:20:16;;;;;;;3.35;1.60;;;;;;;25.29;33.75;95770.72;5031422;28;20491;-62
2021/10/30 05:22:41;;;;;;;1.88;1.55;;;;;;;25.28;33.92;95769.88;5029787;28;20026;-63
2021/10/30 05:25:07;;;;;;;1.83;1.50;;;;;;;25.29;33.91;95761.06;5026063;28;20115;-64
2021/10/30 05:27:33;;;;;;;1.88;1.48;;;;;;;25.29;33.72;95755.00;5033437;28;20032;-63
2021/10/30 05:29:58;;;;;;;2.25;1.45;;;;;;;25.28;33.75;95754.13;5024562;28;20530;-63
2021/10/30 05:32:23;;;;;;;3.95;1.80;;;;;;;25.28;33.58;95748.91;5028117;28;20032;-63
2021/10/30 05:34:49;;;;;;;1.60;1.30;;;;;;;25.30;33.64;95746.19;5032534;28;20083;-63
2021/10/30 05:37:14;;;;;;;4.13;1.50;;;;;;;25.30;33.63;95728.66;5016999;28;20391;-63
2021/10/30 05:39:40;;;;;;;2.70;1.45;;;;;;;25.29;33.67;95734.84;5029690;28;20756;-64
2021/10/30 05:42:07;;;;;;;2.00;1.50;;;;;;;25.30;33.73;95739.16;5032510;28;20021;-63
2021/10/30 05:44:33;;;;;;;3.45;1.52;;;;;;;25.29;33.76;95734.84;5028319;28;20116;-63
2021/10/30 05:46:58;;;;;;;4.90;2.95;;;;;;;25.29;33.48;95729.59;5011196;28;20049;-63
2021/10/30 05:49:25;;;;;;;4.82;2.10;;;;;;;25.28;33.00;95735.78;5030732;28;20021;-63
2021/10/30 05:51:51;;;;;;;1.58;1.48;;;;;;;25.29;33.45;95744.50;5031184;28;20612;-64
2021/10/30 05:54:16;;;;;;;2.25;1.70;;;;;;;25.29;33.46;95745.31;5032543;28;20025;-64
2021/10/30 05:56:41;;;;;;;1.92;1.65;;;;;;;25.29;33.64;95745.31;5031955;28;20022;-62
2021/10/30 05:59:07;;;;;;;2.45;1.70;;;;;;;25.29;33.68;95745.31;5028823;28;20506;-64
2021/10/30 06:01:32;;;;;;;2.63;1.60;;;;;;;25.30;33.56;95740.94;5031335;28;20025;-63
2021/10/30 06:03:58;;;;;;;2.30;1.70;;;;;;;25.30;33.50;95723.44;5032016;28;20041;-63
2021/10/30 06:06:23;;;;;;;2.15;1.70;;;;;;;25.31;33.72;95722.47;5015264;28;20181;-63
2021/10/30 06:08:49;;;;;;;2.03;1.50;;;;;;;25.31;33.75;95719.84;5013208;28;20454;-63
2021/10/30 06:11:14;;;;;;;2.30;1.60;;;;;;;25.31;33.67;95704.13;5030895;28;20025;-63
2021/10/30 06:13:39;;;;;;;1.92;1.50;;;;;;;25.33;33.54;95703.16;5027501;28;20025;-63
2021/10/30 06:16:05;;;;;;;1.42;1.33;;;;;;;25.31;33.69;95701.50;5027350;28;20032;-64
2021/10/30 06:18:31;;;;;;;2.35;2.03;;;;;;;25.34;33.69;95694.34;5029234;28;20052;-63
2021/10/30 06:20:56;;;;;;;2.50;1.80;;;;;;;25.33;33.55;95688.28;5029084;28;20032;-63
2021/10/30 06:23:22;;;;;;;2.63;2.03;;;;;;;25.34;33.42;95682.09;5029861;28;20503;-63
2021/10/30 06:25:47;;;;;;;2.90;1.83;;;;;;;25.35;33.53;95680.31;5029821;28;20405;-64
2021/10/30 06:28:12;;;;;;;2.38;1.67;;;;;;;25.35;33.65;95667.22;5031335;28;20036;-62
2021/10/30 06:30:38;;;;;;;2.80;1.90;;;;;;;25.34;33.69;95668.13;5016885;28;20568;-62
2021/10/30 06:33:03;;;;;;;2.40;1.77;;;;;;;25.35;33.47;95670.66;5030176;28;20103;-63
2021/10/30 06:35:29;;;;;;;3.35;1.85;;;;;;;25.35;33.51;95664.59;5029281;28;20036;-63
2021/10/30 06:37:56;;;;;;;9.38;1.77;;;;;;;25.36;33.57;95650.53;5031390;28;20094;-62
2021/10/30 06:40:21;;;;;;;6.30;2.38;;;;;;;25.35;33.53;95648.84;5024047;28;20033;-64
2021/10/30 06:42:47;;;;;;;11.63;2.85;;;;;;;25.35;33.60;95648.84;5029445;28;20037;-63
2021/10/30 06:45:12;;;;;;;7.20;3.00;;;;;;;25.36;33.63;95650.53;5029414;28;20045;-62
2021/10/30 06:47:38;;;;;;;4.80;2.95;;;;;;;25.34;33.83;95642.75;5032760;28;20443;-62
2021/10/30 06:50:04;;;;;;;15.52;4.20;;;;;;;25.35;33.08;95654.09;5029051;28;20036;-63
2021/10/30 06:52:36;;;;;;;13.07;5.00;;;;;;;25.31;31.76;95643.81;5031554;28;20380;-63
2021/10/30 06:55:06;;;;;;;7.82;4.57;;;;;;;25.28;30.92;95649.25;5036558;28;20104;-63
2021/10/30 06:57:32;;;;;;;9.98;4.95;;;;;;;25.25;30.72;95653.88;5016414;28;20033;-63
2021/10/30 06:59:59;;;;;;;11.75;5.32;;;;;;;25.21;30.50;95661.13;5035758;28;20021;-63
2021/10/30 07:02:24;;;;;;;8.48;4.90;;;;;;;25.17;30.25;95673.59;5032327;28;20036;-62
2021/10/30 07:04:49;;;;;;;11.25;4.40;;;;;;;25.14;30.09;95679.03;5032274;28;20037;-62
2021/10/30 07:07:15;;;;;;;10.05;4.53;;;;;;;25.10;30.08;95679.38;5012315;28;20026;-63
2021/10/30 07:09:40;;;;;;;6.70;3.97;;;;;;;25.07;29.87;95687.44;5030432;28;20083;-63
2021/10/30 07:12:06;;;;;;;12.98;4.95;;;;;;;25.02;29.84;95680.72;5028233;28;20029;-62
2021/10/30 07:14:31;;;;;;;8.18;4.57;;;;;;;25.00;29.69;95676.50;5031170;28;20075;-63
2021/10/30 07:16:58;;;;;;;8.05;4.93;;;;;;;24.98;29.82;95681.03;5031646;28;20025;-62
2021/10/30 07:19:23;;;;;;;10.27;4.70;;;;;;;24.97;29.90;95674.94;5029493;28;20720;-63
2021/10/30 07:21:48;;;;;;;11.45;7.15;;;;;;;24.96;29.83;95681.13;5042228;28;20029;-63
2021/10/30 07:24:14;;;;;;;21.08;15.98;;;;;;;24.95;29.67;95683.84;5041060;28;20029;-63
2021/10/30 07:26:39;;;;;;;12.93;9.15;;;;;;;24.93;29.68;95681.34;5032546;28;20033;-63
2021/10/30 07:29:05;;;;;;;10.95;6.75;;;;;;;24.93;29.68;95686.56;5038443;28;20037;-64
2021/10/30 07:31:30;;;;;;;9.02;5.57;;;;;;;24.90;29.72;95677.13;5043480;28;20028;-63
2021/10/30 07:33:55;;;;;;;7.97;5.70;;;;;;;24.91;29.56;95672.75;5046225;28;20075;-62
2021/10/30 07:36:21;;;;;;;7.93;4.60;;;;;;;24.89;29.59;95670.22;5036933;28;20048;-64
2021/10/30 07:38:47;;;;;;;6.60;4.95;;;;;;;24.88;29.45;95667.72;5030921;28;20032;-64
2021/10/30 07:41:12;;;;;;;7.80;4.32;;;;;;;24.88;29.75;95657.22;5028926;28;20028;-63
2021/10/30 07:43:37;;;;;;;12.30;4.68;;;;;;;24.88;30.50;95657.22;5026903;28;20029;-63
2021/10/30 07:46:03;;;;;;;10.70;5.13;;;;;;;24.89;31.03;95653.66;5029681;28;20033;-64
2021/10/30 07:48:28;;;;;;;7.40;4.30;;;;;;;24.92;30.89;95653.47;5031217;28;20108;-63
2021/10/30 07:50:53;;;;;;;8.90;4.50;;;;;;;24.92;31.49;95654.31;5029290;28;20056;-63
2021/10/30 07:53:19;;;;;;;6.78;4.00;;;;;;;24.96;31.64;95660.16;5032569;28;20029;-63
2021/10/30 07:55:47;;;;;;;8.27;4.32;;;;;;;24.97;31.69;95640.88;5030809;28;20044;-63
2021/10/30 07:58:12;;;;;;;7.32;4.07;;;;;;;25.02;31.75;95643.19;5030346;28;20402;-62
2021/10/30 08:00:38;;;;;;;6.90;4.07;;;;;;;25.03;31.96;95629.13;5029301;28;20033;-63
2021/10/30 08:03:03;;;;;;;7.40;4.28;;;;;;;25.06;31.99;95636.81;5030637;28;20021;-62
2021/10/30 08:05:29;;;;;;;8.30;4.50;;;;;;;25.10;32.21;95634.81;5029141;28;20087;-64
2021/10/30 08:07:55;;;;;;;6.53;4.05;;;;;;;25.12;32.28;95638.13;5014965;28;20036;-64
2021/10/30 08:10:22;;;;;;;9.52;3.88;;;;;;;25.14;32.26;95639.72;5030625;28;20028;-63
2021/10/30 08:12:48;;;;;;;5.82;3.90;;;;;;;25.17;32.33;95641.31;5026635;28;20321;-64
2021/10/30 08:15:13;;;;;;;7.97;3.90;;;;;;;25.20;32.47;95651.56;5030670;28;20037;-63
2021/10/30 08:17:39;;;;;;;9.50;3.90;;;;;;;25.22;32.54;95661.94;5030257;28;20244;-63
2021/10/30 08:20:06;;;;;;;6.28;3.67;;;;;;;25.24;32.51;95658.28;5030817;28;20534;-63
2021/10/30 08:22:31;;;;;;;10.27;3.85;;;;;;;25.25;32.62;95654.69;5029124;28;20078;-63
2021/10/30 08:24:57;;;;;;;8.20;3.85;;;;;;;25.27;32.74;95646.72;5026334;28;20062;-62
2021/10/30 08:27:22;;;;;;;9.13;3.58;;;;;;;25.28;32.69;95646.63;5028166;28;20103;-63
2021/10/30 08:29:47;;;;;;;5.18;3.40;;;;;;;25.29;32.71;95640.44;5028131;28;20029;-65
2021/10/30 08:32:14;;;;;;;6.40;3.80;;;;;;;25.29;32.50;95640.44;5026661;28;20480;-63
2021/10/30 08:34:39;;;;;;;10.88;5.47;;;;;;;25.26;29.88;95645.06;5029034;28;20142;-62
2021/10/30 08:37:05;;;;;;;10.90;5.97;;;;;;;25.16;27.67;95647.47;4997956;28;20185;-62
2021/10/30 08:39:30;;;;;;;7.18;5.57;;;;;;;24.98;27.16;95646.97;5012731;28;20395;-62
2021/10/30 08:41:57;;;;;;;10.57;5.97;;;;;;;24.78;26.38;95649.97;5027031;28;20030;-63
2021/10/30 08:44:22;;;;;;;9.68;5.10;;;;;;;24.64;27.11;95644.81;5025354;28;20205;-63
2021/10/30 08:46:51;;;;;;;10.50;4.47;;;;;;;24.55;27.50;95640.19;5030315;28;20033;-62
2021/10/30 08:49:17;;;;;;;7.15;4.35;;;;;;;24.48;28.23;95640.56;5015660;28;20053;-63
2021/10/30 08:51:43;;;;;;;9.68;4.35;;;;;;;24.46;28.88;95642.47;5028598;28;20048;-62
2021/10/30 08:54:10;;;;;;;7.65;4.55;;;;;;;24.47;29.30;95633.66;5028216;28;20083;-63
2021/10/30 08:56:37;;;;;;;8.18;4.07;;;;;;;24.47;29.41;95638.91;5016769;28;20025;-64
2021/10/30 08:59:03;;;;;;;7.07;4.00;;;;;;;24.48;29.78;95630.09;5031315;28;20037;-64
2021/10/30 09:01:28;;;;;;;6.78;3.78;;;;;;;24.52;30.15;95642.06;5033140;28;20095;-61
2021/10/30 09:04:00;;;;;;;8.00;3.60;;;;;;;24.55;30.08;95633.16;5015261;28;20103;-62
2021/10/30 09:06:44;;;;;;;6.43;3.72;;;;;;;24.60;30.28;95632.84;5029188;28;20518;-62
2021/10/30 09:09:17;;;;;;;5.35;3.33;;;;;;;24.62;30.45;95625.72;5016278;28;20036;-63
2021/10/30 09:11:52;;;;;;;6.38;3.22;;;;;;;24.64;30.69;95618.63;5026890;28;20503;-63
2021/10/30 09:14:19;;;;;;;7.07;3.20;;;;;;;24.71;30.73;95630.34;5013622;28;20059;-63
2021/10/30 09:16:46;;;;;;;5.05;3.30;;;;;;;24.73;30.81;95633.72;5031866;28;20053;-64
2021/10/30 09:19:12;;;;;;;6.05;3.42;;;;;;;24.77;30.83;95629.94;5027000;28;20032;-63
2021/10/30 09:21:37;;;;;;;5.43;3.38;;;;;;;24.78;30.99;95621.13;5012779;28;20457;-63
2021/10/30 09:24:03;;;;;;;8.55;3.30;;;;;;;24.82;30.88;95626.19;5017106;28;20492;-63
2021/10/30 09:26:30;;;;;;;10.00;3.90;;;;;;;24.85;31.06;95621.59;5026762;28;20428;-64
2021/10/30 09:29:02;;;;;;;17.08;4.57;;;;;;;24.87;31.04;95621.50;5018100;28;20025;-63
2021/10/30 09:31:27;;;;;;;14.27;4.82;;;;;;;24.89;31.16;95622.22;5029534;28;20381;-63
2021/10/30 09:33:59;;;;;;;10.70;4.57;;;;;;;24.92;31.24;95622.00;5031155;28;20201;-63
2021/10/30 09:36:28;;;;;;;;;;;;;;;24.95;31.10;95627.06;5033845;28;20372;-63
2021/10/30 09:38:58;;;;;;;9.80;4.05;;;;;;;24.96;31.36;95623.47;5035793;28;20410;-63
2021/10/30 09:41:39;;;;;;;12.55;4.63;;;;;;;24.97;31.33;95625.16;5030153;28;20068;-62
2021/10/30 09:44:17;;;;;;;12.07;4.57;;;;;;;24.98;31.23;95618.97;5000397;28;20795;-64
2021/10/30 09:46:46;;;;;;;12.15;4.35;;;;;;;25.01;31.35;95621.38;5031257;28;20468;-62
2021/10/30 09:49:19;;;;;;;11.90;4.68;;;;;;;25.03;31.50;95630.00;5031283;28;20039;-62
2021/10/30 09:51:46;;;;;;;17.67;5.40;;;;;;;25.05;31.43;95622.84;5031198;28;20116;-62
2021/10/30 09:54:11;;;;;;;9.48;4.88;;;;;;;25.08;31.33;95623.56;5031183;28;20068;-62
2021/10/30 09:56:41;;;;;;;11.63;4.32;;;;;;;25.09;31.55;95625.25;5026996;28;20083;-62
2021/10/30 09:59:08;;;;;;;11.13;4.80;;;;;;;25.10;31.54;95625.16;5024468;28;20139;-64
2021/10/30 10:01:34;;;;;;;15.63;4.72;;;;;;;25.13;31.61;95634.59;5007253;28;20484;-62
2021/10/30 10:03:59;;;;;;;12.82;4.50;;;;;;;25.14;31.60;95639.72;5014915;28;20036;-62
2021/10/30 10:06:25;;;;;;;11.55;4.68;;;;;;;25.16;31.58;95618.63;5031386;28;20057;-62
2021/10/30 10:08:50;;;;;;;8.18;4.53;;;;;;;25.18;31.70;95627.25;5032238;28;20291;-61
2021/10/30 10:11:20;;;;;;;9.55;4.47;;;;;;;25.20;31.81;95619.28;5033870;28;20080;-63
2021/10/30 10:13:46;;;;;;;12.20;4.75;;;;;;;25.20;31.60;95625.34;5023460;28;20049;-64
2021/10/30 10:16:19;;;;;;;8.88;4.15;;;;;;;25.22;31.63;95636.59;5036529;28;20116;-62
2021/10/30 10:18:48;;;;;;;9.88;4.70;;;;;;;25.23;31.78;95630.38;5033461;28;20143;-62
2021/10/30 10:21:16;;;;;;;10.52;4.55;;;;;;;25.25;31.92;95627.66;5017611;28;20184;-63
2021/10/30 10:23:42;;;;;;;9.15;4.30;;;;;;;25.25;31.62;95631.09;5018961;28;20037;-62
2021/10/30 10:26:07;;;;;;;11.82;4.78;;;;;;;25.26;31.73;95630.19;5032248;28;20025;-63
2021/10/30 10:28:34;;;;;;;9.70;4.07;;;;;;;25.27;31.79;95625.75;4999941;28;20025;-63
2021/10/30 10:31:01;;;;;;;9.00;4.07;;;;;;;25.28;31.90;95628.28;5015811;28;20104;-60
2021/10/30 10:33:27;;;;;;;10.13;4.57;;;;;;;25.29;31.90;95618.63;5030370;28;20048;-63
2021/10/30 10:36:14;;;;;;;7.68;4.05;;;;;;;25.29;31.95;95616.84;5029906;28;20585;-63
2021/10/30 10:38:58;;;;;;;10.57;4.10;;;;;;;25.30;31.92;95610.69;5033655;28;20021;-62
2021/10/30 10:41:44;;;;;;;10.85;4.47;;;;;;;25.30;31.72;95605.44;5032118;28;20057;-64
2021/10/30 10:44:11;;;;;;;8.30;4.60;;;;;;;25.29;31.96;95598.47;5029237;28;20120;-62
2021/10/30 10:46:50;;;;;;;9.20;4.18;;;;;;;25.29;31.91;95603.72;5011639;28;20032;-63
2021/10/30 10:49:28;;;;;;;9.70;4.40;;;;;;;25.31;31.80;95621.97;5029440;28;20260;-63
2021/10/30 10:52:20;;;;;;;8.30;4.10;;;;;;;25.31;32.00;95637.72;5015625;28;20021;-63
2021/10/30 10:54:52;;;;;;;7.90;4.03;;;;;;;25.33;32.05;95640.22;5027041;28;20465;-61
2021/10/30 10:57:47;;;;;;;10.98;4.47;;;;;;;25.35;32.20;95643.59;5028117;28;20112;-63
2021/10/30 11:00:16;;;;;;;10.45;4.15;;;;;;;25.36;32.23;95646.09;5010009;28;20041;-63
2021/10/30 11:02:50;;;;;;;8.52;4.38;;;;;;;25.36;32.08;95645.28;5027380;28;20040;-61
2021/10/30 11:05:20;;;;;;;8.13;3.72;;;;;;;25.36;32.23;95645.28;5024834;28;20598;-61
2021/10/30 11:07:52;;;;;;;20.33;4.13;;;;;;;25.35;32.28;95654.09;5028939;28;20024;-61
2021/10/30 11:10:39;;;;;;;14.90;4.13;;;;;;;25.35;32.20;95648.84;5031956;28;20044;-61
2021/10/30 11:13:09;;;;;;;7.65;3.55;;;;;;;25.33;32.35;95648.94;5030589;28;20483;-63
2021/10/30 11:15:45;;;;;;;13.70;4.10;;;;;;;25.36;32.29;95650.53;5015900;28;20043;-63
2021/10/30 11:18:25;;;;;;;13.05;3.63;;;;;;;25.37;32.78;95657.44;5028751;28;20553;-62
2021/10/30 11:21:13;;;;;;;10.23;3.60;;;;;;;25.38;33.47;95651.25;5030166;28;20446;-62
2021/10/30 11:23:43;;;;;;;10.52;3.78;;;;;;;25.41;32.82;95643.16;5013533;28;20032;-60
2021/10/30 11:26:09;;;;;;;21.63;3.20;;;;;;;25.44;32.95;95653.44;5029898;28;20051;-62
2021/10/30 11:28:35;;;;;;;8.25;3.75;;;;;;;25.47;32.98;95661.09;5030019;28;20029;-62
2021/10/30 11:31:13;;;;;;;9.40;3.72;;;;;;;25.50;32.89;95658.25;5025403;28;20419;-61